createdAt,value
2023-05-01T00:02:27.400Z,3.26
2023-05-01T00:04:55.777Z,3.29
2023-05-01T00:07:25.461Z,3.30
2023-05-01T00:09:53.762Z,3.30
2023-05-01T00:12:21.959Z,3.29
2023-05-01T00:14:50.339Z,3.29
2023-05-01T00:17:18.647Z,3.29
2023-05-01T00:19:46.748Z,3.27
2023-05-01T00:22:15.066Z,3.26
2023-05-01T00:24:43.248Z,3.26
2023-05-01T00:27:11.415Z,3.27
2023-05-01T00:29:39.989Z,3.27
2023-05-01T00:32:08.313Z,3.25
2023-05-01T00:34:36.641Z,3.25
2023-05-01T00:37:04.822Z,3.24
2023-05-01T00:39:33.213Z,3.20
2023-05-01T00:42:02.699Z,3.15
2023-05-01T00:44:31.080Z,3.12
2023-05-01T00:47:01.061Z,3.11
2023-05-01T00:49:29.725Z,3.11
2023-05-01T00:51:58.911Z,3.13
2023-05-01T00:54:28.356Z,3.12
2023-05-01T00:56:56.694Z,3.14
2023-05-01T00:59:25.694Z,3.14
2023-05-01T01:01:56.284Z,3.10
2023-05-01T01:04:25.023Z,3.07
2023-05-01T01:07:11.659Z,3.04
2023-05-01T01:09:59.952Z,3.04
2023-05-01T01:12:39.140Z,3.04
2023-05-01T01:15:13.300Z,3.03
2023-05-01T01:17:57.000Z,3.03
2023-05-01T01:20:30.581Z,3.06
2023-05-01T01:23:03.120Z,3.06
2023-05-01T01:25:59.453Z,2.99
2023-05-01T01:29:23.432Z,3.10
2023-05-01T01:32:01.953Z,3.12
2023-05-01T01:34:45.463Z,3.12
2023-05-01T01:37:24.764Z,3.13
2023-05-01T01:40:05.298Z,3.09
2023-05-01T01:42:44.689Z,3.18
2023-05-01T01:45:19.440Z,3.21
2023-05-01T01:47:48.569Z,3.21
2023-05-01T01:50:21.470Z,3.23
2023-05-01T01:52:51.748Z,3.24
2023-05-01T01:55:25.512Z,3.25
2023-05-01T01:57:54.130Z,3.24
2023-05-01T02:00:23.606Z,3.26
2023-05-01T02:02:53.937Z,3.25
2023-05-01T02:05:24.216Z,3.25
2023-05-01T02:07:53.358Z,3.23
2023-05-01T02:10:23.373Z,3.22
2023-05-01T02:12:53.708Z,3.17
2023-05-01T02:15:23.567Z,3.11
2023-05-01T02:17:52.982Z,3.08
2023-05-01T02:20:22.116Z,3.03
2023-05-01T02:22:53.377Z,2.99
2023-05-01T02:25:22.276Z,2.85
2023-05-01T02:27:57.854Z,2.87
2023-05-01T02:30:26.210Z,2.85
2023-05-01T02:32:54.369Z,2.82
2023-05-01T02:35:22.826Z,2.79
2023-05-01T02:37:51.724Z,2.73
2023-05-01T02:40:20.358Z,2.73
2023-05-01T02:42:51.817Z,2.67
2023-05-01T02:45:23.904Z,2.63
2023-05-01T02:47:59.892Z,2.61
2023-05-01T02:50:28.714Z,2.60
2023-05-01T02:52:58.021Z,2.60
2023-05-01T02:55:58.652Z,2.58
2023-05-01T02:58:30.570Z,2.56
2023-05-01T03:00:58.654Z,2.55
2023-05-01T03:03:28.033Z,2.50
2023-05-01T03:05:56.306Z,2.50
2023-05-01T03:08:25.222Z,2.51
2023-05-01T03:10:53.554Z,2.53
2023-05-01T03:13:23.758Z,2.54
2023-05-01T03:15:53.291Z,2.54
2023-05-01T03:18:21.834Z,2.53
2023-05-01T03:20:59.427Z,2.54
2023-05-01T03:23:28.671Z,2.52
2023-05-01T03:25:57.550Z,2.50
2023-05-01T03:28:25.661Z,2.53
2023-05-01T03:30:53.800Z,2.54
2023-05-01T03:33:22.141Z,2.55
2023-05-01T03:36:00.808Z,2.54
2023-05-01T03:38:30.021Z,2.53
2023-05-01T03:41:10.363Z,2.53
2023-05-01T03:43:57.140Z,2.54
2023-05-01T03:46:38.608Z,2.53
2023-05-01T03:49:07.766Z,2.56
2023-05-01T03:51:41.726Z,2.58
2023-05-01T03:54:10.123Z,2.59
2023-05-01T03:56:51.889Z,2.65
2023-05-01T03:59:20.302Z,2.69
2023-05-01T04:01:48.495Z,2.73
2023-05-01T04:04:16.956Z,2.80
2023-05-01T04:06:49.840Z,2.83
2023-05-01T04:09:18.232Z,2.89
2023-05-01T04:11:47.272Z,2.95
2023-05-01T04:14:15.445Z,3.01
2023-05-01T04:16:43.659Z,3.04
2023-05-01T04:19:11.764Z,3.07
2023-05-01T04:21:43.021Z,3.11
2023-05-01T04:24:11.208Z,3.16
2023-05-01T04:26:39.686Z,3.14
2023-05-01T04:29:08.413Z,3.30
2023-05-01T04:31:36.850Z,3.39
2023-05-01T04:34:06.945Z,3.42
2023-05-01T04:36:37.394Z,3.50
2023-05-01T04:39:05.762Z,3.55
2023-05-01T04:41:34.279Z,3.64
2023-05-01T04:44:03.175Z,3.72
2023-05-01T04:46:31.646Z,3.79
2023-05-01T04:48:59.855Z,3.87
2023-05-01T04:51:29.136Z,3.94
2023-05-01T04:53:57.582Z,4.03
2023-05-01T04:56:27.481Z,4.14
2023-05-01T04:58:59.470Z,4.23
2023-05-01T05:01:28.396Z,4.27
2023-05-01T05:03:56.897Z,4.31
2023-05-01T05:06:25.278Z,4.31
2023-05-01T05:08:54.845Z,4.32
2023-05-01T05:11:23.049Z,4.28
2023-05-01T05:13:59.451Z,4.33
2023-05-01T05:16:27.780Z,4.45
2023-05-01T05:18:57.449Z,4.46
2023-05-01T05:21:26.963Z,4.51
2023-05-01T05:23:56.989Z,4.57
2023-05-01T05:26:27.356Z,4.63
2023-05-01T05:28:57.610Z,4.67
2023-05-01T05:31:25.961Z,4.71
2023-05-01T05:33:54.516Z,4.78
2023-05-01T05:36:22.887Z,4.87
2023-05-01T05:38:51.079Z,4.92
2023-05-01T05:41:20.448Z,4.99
2023-05-01T05:43:49.126Z,5.03
2023-05-01T05:46:17.374Z,5.07
2023-05-01T05:48:46.155Z,5.05
2023-05-01T05:51:14.377Z,5.17
2023-05-01T05:53:42.552Z,5.24
2023-05-01T05:56:11.442Z,5.34
2023-05-01T05:58:40.102Z,5.42
2023-05-01T06:01:09.484Z,5.47
2023-05-01T06:03:38.619Z,5.55
2023-05-01T06:06:07.219Z,5.61
2023-05-01T06:08:37.635Z,5.69
2023-05-01T06:11:09.264Z,5.75
2023-05-01T06:13:37.909Z,5.80
2023-05-01T06:16:07.735Z,5.88
2023-05-01T06:18:36.696Z,5.96
2023-05-01T06:21:05.052Z,6.10
2023-05-01T06:23:34.309Z,6.23
2023-05-01T06:26:21.764Z,6.33
2023-05-01T06:28:50.066Z,6.41
2023-05-01T06:31:19.178Z,6.51
2023-05-01T06:33:51.133Z,6.56
2023-05-01T06:36:48.783Z,6.64
2023-05-01T06:39:16.913Z,6.72
2023-05-01T06:41:48.659Z,6.73
2023-05-01T06:44:17.065Z,6.89
2023-05-01T06:46:45.243Z,6.89
2023-05-01T06:49:14.283Z,6.95
2023-05-01T06:51:42.436Z,7.11
2023-05-01T06:54:10.600Z,7.21
2023-05-01T06:56:39.851Z,7.29
2023-05-01T06:59:08.047Z,7.37
2023-05-01T07:01:36.420Z,7.48
2023-05-01T07:04:04.777Z,7.61
2023-05-01T07:06:33.175Z,7.69
2023-05-01T07:09:01.400Z,7.76
2023-05-01T07:11:29.673Z,7.79
2023-05-01T07:13:57.986Z,7.83
2023-05-01T07:16:26.208Z,7.90
2023-05-01T07:18:54.735Z,7.97
2023-05-01T07:21:22.860Z,8.05
2023-05-01T07:23:51.294Z,8.07
2023-05-01T07:26:19.904Z,8.17
2023-05-01T07:28:48.269Z,8.32
2023-05-01T07:31:17.246Z,8.40
2023-05-01T07:33:45.549Z,8.42
2023-05-01T07:36:14.327Z,8.45
2023-05-01T07:38:42.510Z,8.50
2023-05-01T07:41:10.663Z,8.60
2023-05-01T07:43:39.247Z,8.69
2023-05-01T07:46:07.696Z,8.73
2023-05-01T07:48:38.707Z,8.72
2023-05-01T07:51:07.322Z,8.89
2023-05-01T07:53:35.674Z,9.04
2023-05-01T07:56:09.205Z,9.14
2023-05-01T07:58:37.771Z,9.18
2023-05-01T08:01:06.386Z,9.19
2023-05-01T08:03:34.667Z,9.24
2023-05-01T08:06:03.196Z,9.31
2023-05-01T08:08:31.636Z,9.38
2023-05-01T08:10:59.753Z,9.39
2023-05-01T08:13:27.835Z,9.42
2023-05-01T08:15:59.240Z,9.45
2023-05-01T08:18:27.393Z,9.47
2023-05-01T08:20:55.856Z,9.49
2023-05-01T08:23:25.384Z,9.59
2023-05-01T08:25:53.900Z,9.73
2023-05-01T08:28:23.305Z,9.65
2023-05-01T08:30:51.578Z,9.79
2023-05-01T08:33:19.915Z,9.87
2023-05-01T08:35:49.482Z,10.00
2023-05-01T08:38:17.656Z,10.16
2023-05-01T08:40:53.582Z,10.30
2023-05-01T08:43:22.800Z,10.41
2023-05-01T08:45:52.396Z,10.61
2023-05-01T08:48:22.082Z,10.87
2023-05-01T08:50:52.282Z,11.02
2023-05-01T08:53:22.359Z,11.10
2023-05-01T08:55:52.424Z,11.11
2023-05-01T08:58:21.416Z,11.26
2023-05-01T09:00:49.678Z,11.36
2023-05-01T09:03:18.869Z,11.51
2023-05-01T09:05:47.473Z,11.58
2023-05-01T09:08:16.046Z,11.60
2023-05-01T09:10:48.379Z,11.65
2023-05-01T09:13:17.149Z,11.84
2023-05-01T09:15:46.857Z,12.05
2023-05-01T09:18:16.351Z,12.22
2023-05-01T09:20:44.999Z,12.69
2023-05-01T09:23:13.873Z,12.98
2023-05-01T09:25:43.295Z,13.00
2023-05-01T09:28:11.652Z,13.32
2023-05-01T09:30:40.102Z,13.62
2023-05-01T09:33:10.412Z,13.86
2023-05-01T09:35:55.426Z,14.23
2023-05-01T09:38:26.118Z,14.49
2023-05-01T09:41:03.655Z,14.75
2023-05-01T09:43:32.046Z,14.92
2023-05-01T09:46:09.775Z,15.05
2023-05-01T09:48:39.018Z,15.24
2023-05-01T09:51:27.260Z,15.41
2023-05-01T09:54:02.420Z,15.57
2023-05-01T09:56:33.322Z,15.75
2023-05-01T09:59:21.286Z,15.88
2023-05-01T10:01:50.656Z,16.18
2023-05-01T10:04:31.086Z,16.37
2023-05-01T10:07:14.882Z,16.55
2023-05-01T10:09:43.108Z,16.46
2023-05-01T10:12:23.292Z,16.61
2023-05-01T10:14:54.131Z,17.18
2023-05-01T10:17:22.540Z,17.69
2023-05-01T10:19:53.646Z,18.12
2023-05-01T10:22:22.088Z,18.17
2023-05-01T10:24:51.052Z,18.09
2023-05-01T10:27:22.435Z,18.25
2023-05-01T10:29:53.494Z,18.30
2023-05-01T10:32:22.271Z,18.17
2023-05-01T10:35:00.859Z,18.09
2023-05-01T10:37:40.885Z,18.15
2023-05-01T10:40:39.881Z,18.37
2023-05-01T10:43:28.893Z,18.47
2023-05-01T10:46:22.107Z,18.46
2023-05-01T10:48:50.183Z,18.60
2023-05-01T10:51:25.065Z,18.70
2023-05-01T10:54:13.017Z,18.64
2023-05-01T10:56:43.554Z,19.04
2023-05-01T10:59:13.109Z,19.25
2023-05-01T11:01:44.968Z,19.32
2023-05-01T11:04:19.383Z,19.11
2023-05-01T11:07:08.675Z,19.03
2023-05-01T11:09:46.613Z,19.29
2023-05-01T11:12:16.924Z,19.60
2023-05-01T11:14:54.632Z,19.88
2023-05-01T11:17:44.341Z,20.28
2023-05-01T11:20:35.656Z,20.48
2023-05-01T11:23:03.847Z,20.53
2023-05-01T11:25:33.218Z,20.67
2023-05-01T11:28:03.458Z,20.89
2023-05-01T11:30:41.479Z,20.89
2023-05-01T11:33:10.867Z,21.09
2023-05-01T11:35:39.496Z,21.04
2023-05-01T11:38:18.994Z,20.89
2023-05-01T11:40:55.960Z,20.67
2023-05-01T11:55:04.155Z,21.23
2023-05-01T11:57:45.501Z,21.03
2023-05-01T12:00:16.033Z,20.89
2023-05-01T12:03:08.029Z,21.22
2023-05-01T12:05:39.014Z,21.54
2023-05-01T12:08:11.604Z,21.55
2023-05-01T12:10:43.764Z,21.43
2023-05-01T12:13:13.754Z,21.05
2023-05-01T12:15:50.555Z,21.15
2023-05-01T12:18:19.313Z,21.09
2023-05-01T12:20:50.385Z,20.93
2023-05-01T12:23:20.329Z,21.03
2023-05-01T12:25:48.486Z,20.85
2023-05-01T12:28:19.890Z,20.56
2023-05-01T12:30:51.611Z,20.65
2023-05-01T12:33:21.524Z,21.14
2023-05-01T12:35:50.964Z,21.25
2023-05-01T12:38:21.923Z,21.01
2023-05-01T12:41:00.609Z,21.03
2023-05-01T12:43:34.280Z,21.28
2023-05-01T12:46:03.891Z,21.10
2023-05-01T12:48:35.341Z,21.00
2023-05-01T12:51:03.566Z,21.30
2023-05-01T12:53:31.789Z,21.54
2023-05-01T12:55:59.991Z,21.80
2023-05-01T12:58:38.219Z,22.06
2023-05-01T13:01:06.930Z,22.13
2023-05-01T13:03:37.700Z,21.98
2023-05-01T13:06:09.195Z,22.07
2023-05-01T13:08:42.479Z,22.46
2023-05-01T13:11:13.398Z,22.67
2023-05-01T13:13:43.695Z,22.59
2023-05-01T13:16:13.775Z,22.48
2023-05-01T13:18:47.156Z,21.96
2023-05-01T13:21:17.746Z,21.85
2023-05-01T13:24:00.279Z,22.00
2023-05-01T13:26:31.572Z,22.13
2023-05-01T13:29:02.049Z,22.33
2023-05-01T13:31:30.613Z,22.43
2023-05-01T13:33:59.999Z,22.43
2023-05-01T13:36:34.745Z,22.43
2023-05-01T13:39:03.349Z,22.43
2023-05-01T13:41:31.756Z,22.46
2023-05-01T13:43:59.902Z,22.49
2023-05-01T13:46:28.802Z,22.57
2023-05-01T13:49:03.490Z,22.32
2023-05-01T13:51:32.720Z,22.11
2023-05-01T13:54:01.085Z,21.89
2023-05-01T13:56:29.189Z,21.85
2023-05-01T13:58:59.910Z,21.82
2023-05-01T14:01:28.067Z,21.81
2023-05-01T14:04:02.317Z,21.76
2023-05-01T14:06:31.083Z,21.51
2023-05-01T14:09:02.057Z,21.62
2023-05-01T14:11:31.160Z,21.90
2023-05-01T14:14:00.133Z,21.93
2023-05-01T14:16:30.457Z,21.84
2023-05-01T14:18:59.156Z,21.73
2023-05-01T14:21:28.175Z,21.66
2023-05-01T14:24:00.449Z,21.69
2023-05-01T14:26:28.630Z,21.64
2023-05-01T14:28:56.742Z,21.54
2023-05-01T14:31:27.689Z,21.35
2023-05-01T14:33:58.043Z,21.34
2023-05-01T14:36:28.656Z,21.24
2023-05-01T14:39:01.622Z,21.17
2023-05-01T14:41:30.253Z,21.13
2023-05-01T14:43:58.346Z,21.14
2023-05-01T14:46:34.464Z,20.98
2023-05-01T14:49:03.137Z,21.35
2023-05-01T14:51:32.419Z,21.33
2023-05-01T14:54:00.854Z,21.26
2023-05-01T14:56:29.123Z,21.77
2023-05-01T14:58:57.304Z,21.50
2023-05-01T15:01:26.186Z,21.57
2023-05-01T15:03:54.486Z,21.72
2023-05-01T15:06:24.695Z,21.65
2023-05-01T15:08:52.935Z,21.65
2023-05-01T15:11:21.727Z,21.68
2023-05-01T15:13:50.582Z,21.51
2023-05-01T15:16:19.025Z,21.39
2023-05-01T15:18:47.190Z,21.20
2023-05-01T15:21:15.304Z,21.10
2023-05-01T15:23:45.397Z,21.10
2023-05-01T15:26:13.921Z,20.88
2023-05-01T15:28:42.122Z,20.81
2023-05-01T15:31:10.288Z,20.78
2023-05-01T15:33:38.465Z,20.74
2023-05-01T15:36:06.782Z,20.68
2023-05-01T15:38:34.848Z,20.80
2023-05-01T15:41:02.957Z,21.06
2023-05-01T15:43:31.080Z,21.31
2023-05-01T15:45:59.982Z,21.16
2023-05-01T15:48:28.222Z,21.10
2023-05-01T15:50:56.482Z,21.02
2023-05-01T15:53:24.705Z,20.96
2023-05-01T15:55:57.135Z,21.02
2023-05-01T15:58:25.316Z,20.94
2023-05-01T16:00:53.579Z,20.83
2023-05-01T16:03:21.865Z,20.69
2023-05-01T16:05:50.414Z,20.59
2023-05-01T16:08:19.374Z,20.57
2023-05-01T16:10:47.881Z,20.24
2023-05-01T16:13:16.085Z,19.74
2023-05-01T16:15:44.320Z,19.27
2023-05-01T16:18:20.110Z,19.05
2023-05-01T16:20:48.435Z,18.64
2023-05-01T16:23:16.625Z,18.34
2023-05-01T16:25:44.985Z,18.08
2023-05-01T16:28:13.273Z,17.84
2023-05-01T16:30:45.208Z,17.65
2023-05-01T16:33:18.830Z,17.49
2023-05-01T16:35:51.076Z,17.34
2023-05-01T16:38:19.593Z,17.17
2023-05-01T16:40:50.960Z,17.10
2023-05-01T16:43:22.026Z,17.04
2023-05-01T16:45:50.345Z,16.97
2023-05-01T16:48:23.543Z,16.88
2023-05-01T16:51:04.837Z,16.81
2023-05-01T16:53:33.053Z,16.73
2023-05-01T16:56:01.246Z,16.63
2023-05-01T16:58:29.415Z,16.54
2023-05-01T17:00:57.883Z,16.41
2023-05-01T17:03:26.969Z,16.30
2023-05-01T17:05:55.738Z,16.18
2023-05-01T17:08:23.996Z,16.09
2023-05-01T17:10:52.248Z,16.01
2023-05-01T17:13:20.634Z,15.95
2023-05-01T17:15:49.233Z,15.87
2023-05-01T17:18:17.496Z,15.80
2023-05-01T17:20:45.560Z,15.74
2023-05-01T17:23:13.728Z,15.68
2023-05-01T17:25:41.796Z,15.58
2023-05-01T17:28:10.001Z,15.55
2023-05-01T17:30:38.147Z,15.46
2023-05-01T17:33:06.451Z,15.41
2023-05-01T17:35:34.755Z,15.39
2023-05-01T17:38:02.998Z,15.32
2023-05-01T17:40:32.401Z,15.29
2023-05-01T17:43:01.135Z,15.22
2023-05-01T17:45:29.350Z,15.18
2023-05-01T17:47:58.295Z,15.13
2023-05-01T17:50:26.516Z,15.01
2023-05-01T17:52:54.607Z,15.04
2023-05-01T17:55:22.815Z,15.00
2023-05-01T17:57:52.424Z,14.95
2023-05-01T18:00:22.569Z,14.90
2023-05-01T18:02:50.823Z,14.87
2023-05-01T18:05:19.108Z,14.83
2023-05-01T18:07:47.231Z,14.78
2023-05-01T18:10:16.211Z,14.72
2023-05-01T18:12:45.880Z,14.65
2023-05-01T18:15:19.332Z,14.57
2023-05-01T18:17:50.921Z,14.52
2023-05-01T18:20:19.652Z,14.47
2023-05-01T18:22:47.745Z,14.41
2023-05-01T18:25:17.117Z,14.37
2023-05-01T18:27:45.673Z,14.33
2023-05-01T18:30:13.959Z,14.27
2023-05-01T18:32:48.135Z,14.22
2023-05-01T18:35:17.794Z,14.15
2023-05-01T18:37:46.664Z,14.05
2023-05-01T18:40:15.518Z,14.00
2023-05-01T18:42:43.640Z,13.95
2023-05-01T18:45:12.040Z,13.89
2023-05-01T18:47:40.234Z,13.83
2023-05-01T18:50:09.430Z,13.70
2023-05-01T18:52:37.803Z,13.72
2023-05-01T18:55:06.456Z,13.68
2023-05-01T18:57:35.184Z,13.56
2023-05-01T19:00:03.701Z,13.57
2023-05-01T19:02:31.997Z,13.50
2023-05-01T19:05:00.324Z,13.44
2023-05-01T19:07:28.437Z,13.37
2023-05-01T19:09:57.128Z,13.33
2023-05-01T19:12:25.666Z,13.29
2023-05-01T19:14:53.919Z,13.23
2023-05-01T19:17:22.118Z,13.16
2023-05-01T19:19:50.229Z,13.11
2023-05-01T19:22:18.413Z,13.06
2023-05-01T19:24:46.529Z,13.00
2023-05-01T19:27:14.655Z,12.94
2023-05-01T19:29:42.803Z,12.91
2023-05-01T19:32:11.078Z,12.79
2023-05-01T19:34:39.219Z,12.74
2023-05-01T19:37:07.358Z,12.78
2023-05-01T19:39:35.658Z,12.75
2023-05-01T19:42:03.740Z,12.69
2023-05-01T19:44:31.967Z,12.67
2023-05-01T19:47:00.140Z,12.64
2023-05-01T19:49:28.511Z,12.61
2023-05-01T19:51:57.670Z,12.58
2023-05-01T19:54:29.043Z,12.55
2023-05-01T19:56:57.255Z,12.52
2023-05-01T19:59:25.431Z,12.49
2023-05-01T20:01:53.863Z,12.47
2023-05-01T20:04:24.237Z,12.43
2023-05-01T20:06:52.603Z,12.39
2023-05-01T20:09:20.839Z,12.35
2023-05-01T20:11:48.989Z,12.31
2023-05-01T20:14:17.155Z,12.26
2023-05-01T20:16:45.365Z,12.22
2023-05-01T20:19:13.908Z,12.18
2023-05-01T20:21:41.987Z,12.13
2023-05-01T20:24:10.445Z,12.09
2023-05-01T20:26:38.567Z,12.05
2023-05-01T20:29:06.742Z,11.87
2023-05-01T20:31:35.232Z,11.98
2023-05-01T20:34:03.439Z,11.94
2023-05-01T20:36:32.241Z,11.90
2023-05-01T20:39:00.416Z,11.86
2023-05-01T20:41:29.304Z,11.67
2023-05-01T20:43:57.511Z,11.82
2023-05-01T20:46:26.276Z,11.79
2023-05-01T20:48:54.641Z,11.77
2023-05-01T20:51:23.312Z,11.73
2023-05-01T20:53:51.691Z,11.70
2023-05-01T20:56:19.969Z,11.68
2023-05-01T20:58:48.137Z,11.62
2023-05-01T21:01:16.256Z,11.61
2023-05-01T21:03:44.553Z,11.59
2023-05-01T21:06:14.447Z,11.57
2023-05-01T21:08:42.632Z,11.55
2023-05-01T21:11:10.782Z,11.53
2023-05-01T21:13:38.919Z,11.50
2023-05-01T21:16:14.659Z,11.46
2023-05-01T21:18:42.878Z,11.42
2023-05-01T21:21:13.714Z,11.42
2023-05-01T21:23:47.740Z,11.40
2023-05-01T21:26:16.492Z,11.37
2023-05-01T21:28:44.869Z,11.35
2023-05-01T21:31:13.906Z,11.33
2023-05-01T21:33:47.726Z,11.31
2023-05-01T21:36:18.345Z,11.28
2023-05-01T21:38:46.624Z,11.26
2023-05-01T21:41:17.832Z,11.24
2023-05-01T21:43:46.012Z,11.22
2023-05-01T21:46:17.422Z,11.21
2023-05-01T21:48:51.776Z,11.19
2023-05-01T21:51:26.088Z,11.16
2023-05-01T21:53:55.540Z,11.13
2023-05-01T21:56:23.928Z,11.14
2023-05-01T21:58:52.211Z,11.12
2023-05-01T22:01:22.996Z,11.11
2023-05-01T22:03:51.749Z,11.11
2023-05-01T22:06:20.454Z,11.03
2023-05-01T22:08:48.571Z,11.11
2023-05-01T22:11:16.648Z,11.11
2023-05-01T22:13:44.799Z,11.12
2023-05-01T22:16:13.774Z,11.12
2023-05-01T22:18:41.963Z,11.12
2023-05-01T22:21:10.024Z,11.13
2023-05-01T22:23:38.126Z,11.13
2023-05-01T22:26:06.252Z,11.15
2023-05-01T22:28:34.402Z,11.16
2023-05-01T22:31:02.658Z,11.16
2023-05-01T22:33:30.824Z,11.17
2023-05-01T22:35:59.071Z,11.19
2023-05-01T22:38:27.191Z,11.19
2023-05-01T22:40:56.129Z,11.19
2023-05-01T22:43:24.780Z,11.21
2023-05-01T22:45:52.870Z,11.21
2023-05-01T22:48:21.116Z,11.21
2023-05-01T22:50:49.203Z,11.21
2023-05-01T22:53:17.267Z,11.20
2023-05-01T22:55:45.470Z,11.19
2023-05-01T22:58:13.721Z,11.17
2023-05-01T23:00:41.938Z,11.15
2023-05-01T23:03:10.161Z,11.13
2023-05-01T23:05:38.335Z,11.11
2023-05-01T23:08:06.464Z,11.08
2023-05-01T23:10:34.718Z,11.06
2023-05-01T23:13:03.170Z,11.04
2023-05-01T23:15:31.266Z,10.97
2023-05-01T23:17:59.645Z,11.01
2023-05-01T23:20:28.059Z,10.98
2023-05-01T23:22:56.117Z,10.95
2023-05-01T23:25:26.135Z,10.93
2023-05-01T23:27:55.613Z,10.91
2023-05-01T23:30:23.975Z,10.85
2023-05-01T23:32:52.310Z,10.86
2023-05-01T23:35:25.126Z,10.83
2023-05-01T23:37:53.980Z,10.81
2023-05-01T23:40:22.782Z,10.71
2023-05-01T23:42:51.050Z,10.76
2023-05-01T23:45:19.339Z,10.75
2023-05-01T23:47:47.525Z,10.73
2023-05-01T23:50:15.626Z,10.70
2023-05-01T23:52:43.732Z,10.67
2023-05-01T23:55:11.843Z,10.66
2023-05-01T23:57:40.119Z,10.64
